Back to Top

Language: 

My Weather Underground Personal Weather Station Historical Data with Graphs...

Delerius Weather Station Historical Data
Daily Summary for August 24, 2017 Units:  English    Metric   Both
« Previous Day
Next Day »
Daily Weekly Monthly Yearly Custom
  High: Low: Average:
Temperature: 67.5 °F 52.3 °F 60.3 °F
Dew Point: 57.0 °F 50.3 °F 53.4 °F
Humidity: 94 % 61 % 79 %
Wind Speed: 11.0 mph 0.0 mph 4.5 mph
Wind Gust: 24.0 mph - -
Wind:- - West
Pressure: 30.00 in 29.89 in -
Precipitation: 0.00 in    
Historical Graphs
 
 
Tabular Data for August 24, 2017
Time Temperature Dew Point Pressure Wind Wind Speed Wind Gust Humidity Rainfall Rate (Hourly) solar Conditions
00:03 56.1 °F 52.3 °F 29.91 in Calm   4.0 mph 87 % 0.00 in 0 W/m2
00:08 55.9 °F 52.1 °F 29.91 in Calm   4.0 mph 87 % 0.00 in 0 W/m2
00:13 55.8 °F 52.3 °F 29.90 in Calm   1.0 mph 88 % 0.00 in 0 W/m2
00:18 55.6 °F 52.1 °F 29.90 in Calm   1.0 mph 88 % 0.00 in 0 W/m2
00:23 55.6 °F 52.1 °F 29.90 in Calm   2.0 mph 88 % 0.00 in 0 W/m2
00:28 55.4 °F 51.9 °F 29.90 in Calm   2.0 mph 88 % 0.00 in 0 W/m2
00:33 55.2 °F 51.7 °F 29.91 in Calm   4.0 mph 88 % 0.00 in 0 W/m2
00:38 55.0 °F 51.9 °F 29.91 in Calm   4.0 mph 89 % 0.00 in 0 W/m2
00:39 55.0 °F 51.9 °F 29.91 in Calm   4.0 mph 89 % 0.00 in 0 W/m2
00:44 55.0 °F 51.9 °F 29.90 in Calm     89 % 0.00 in 0 W/m2
00:49 54.9 °F 51.7 °F 29.91 in Calm     89 % 0.00 in 0 W/m2
00:54 54.9 °F 51.7 °F 29.90 in West 1.0 mph 6.0 mph 89 % 0.00 in 0 W/m2
00:59 54.9 °F 52.0 °F 29.90 in West 1.0 mph 6.0 mph 90 % 0.00 in 0 W/m2
01:04 54.9 °F 52.0 °F 29.91 in West 1.0 mph 5.0 mph 90 % 0.00 in 0 W/m2
01:09 54.9 °F 51.7 °F 29.91 in West 1.0 mph 6.0 mph 89 % 0.00 in 0 W/m2
01:14 54.9 °F 52.0 °F 29.91 in West 3.0 mph 9.0 mph 90 % 0.00 in 0 W/m2
01:19 55.0 °F 52.2 °F 29.91 in West 6.0 mph 11.0 mph 90 % 0.00 in 0 W/m2
01:24 55.2 °F 52.0 °F 29.91 in West 7.0 mph 11.0 mph 89 % 0.00 in 0 W/m2
01:29 55.6 °F 52.4 °F 29.91 in West 6.0 mph 10.0 mph 89 % 0.00 in 0 W/m2
01:34 55.6 °F 52.4 °F 29.91 in West 6.0 mph 11.0 mph 89 % 0.00 in 0 W/m2
01:39 55.6 °F 52.4 °F 29.91 in West 7.0 mph 11.0 mph 89 % 0.00 in 0 W/m2
01:44 55.6 °F 52.4 °F 29.91 in West 7.0 mph 11.0 mph 89 % 0.00 in 0 W/m2
01:49 55.6 °F 52.4 °F 29.91 in West 7.0 mph 10.0 mph 89 % 0.00 in 0 W/m2
01:54 55.8 °F 52.3 °F 29.90 in West 7.0 mph 11.0 mph 88 % 0.00 in 0 W/m2
01:59 55.8 °F 52.3 °F 29.90 in West 7.0 mph 11.0 mph 88 % 0.00 in 0 W/m2
02:04 55.8 °F 52.3 °F 29.91 in West 7.0 mph 10.0 mph 88 % 0.00 in 0 W/m2
02:09 55.8 °F 52.3 °F 29.91 in West 7.0 mph 10.0 mph 88 % 0.00 in 0 W/m2
02:14 55.8 °F 52.3 °F 29.91 in West 7.0 mph 11.0 mph 88 % 0.00 in 0 W/m2
02:19 55.8 °F 52.3 °F 29.91 in West 7.0 mph 11.0 mph 88 % 0.00 in 0 W/m2
02:24 55.8 °F 52.3 °F 29.90 in West 7.0 mph 11.0 mph 88 % 0.00 in 0 W/m2
02:29 55.9 °F 52.4 °F 29.91 in West 6.0 mph 11.0 mph 88 % 0.00 in 0 W/m2
02:34 55.9 °F 52.4 °F 29.91 in WNW 6.0 mph 11.0 mph 88 % 0.00 in 0 W/m2
02:39 55.9 °F 52.4 °F 29.91 in WNW 5.0 mph 9.0 mph 88 % 0.00 in 0 W/m2
02:44 55.9 °F 52.1 °F 29.91 in WNW 4.0 mph 8.0 mph 87 % 0.00 in 0 W/m2
02:49 55.9 °F 52.1 °F 29.91 in West 3.0 mph 8.0 mph 87 % 0.00 in 0 W/m2
02:54 55.8 °F 51.9 °F 29.91 in WSW 1.0 mph 6.0 mph 87 % 0.00 in 0 W/m2
02:59 55.6 °F 51.8 °F 29.91 in Calm   2.0 mph 87 % 0.00 in 0 W/m2
03:04 55.4 °F 51.9 °F 29.91 in Calm   5.0 mph 88 % 0.00 in 0 W/m2
03:09 55.6 °F 52.1 °F 29.91 in SW 1.0 mph 5.0 mph 88 % 0.00 in 0 W/m2
03:14 55.6 °F 52.1 °F 29.91 in Calm   5.0 mph 88 % 0.00 in 0 W/m2
03:19 55.4 °F 51.9 °F 29.91 in Calm   5.0 mph 88 % 0.00 in 0 W/m2
03:24 55.2 °F 51.7 °F 29.91 in Calm   5.0 mph 88 % 0.00 in 0 W/m2
03:29 55.0 °F 51.5 °F 29.91 in Calm   5.0 mph 88 % 0.00 in 0 W/m2
03:34 55.0 °F 51.5 °F 29.91 in SW 2.0 mph 6.0 mph 88 % 0.00 in 0 W/m2
03:40 55.0 °F 51.9 °F 29.91 in SW 3.0 mph 6.0 mph 89 % 0.00 in 0 W/m2
03:45 55.0 °F 51.9 °F 29.90 in WSW 3.0 mph 6.0 mph 89 % 0.00 in 0 W/m2
03:50 55.0 °F 51.5 °F 29.90 in WSW 3.0 mph 7.0 mph 88 % 0.00 in 0 W/m2
03:55 54.9 °F 51.4 °F 29.90 in WSW 3.0 mph 10.0 mph 88 % 0.00 in 0 W/m2
04:00 55.0 °F 51.9 °F 29.90 in WSW 5.0 mph 10.0 mph 89 % 0.00 in 0 W/m2
04:05 55.2 °F 52.0 °F 29.90 in WSW 7.0 mph 10.0 mph 89 % 0.00 in 0 W/m2
04:10 55.4 °F 52.2 °F 29.90 in WSW 6.0 mph 10.0 mph 89 % 0.00 in 0 W/m2
04:15 55.6 °F 52.1 °F 29.90 in West 6.0 mph 9.0 mph 88 % 0.00 in 0 W/m2
04:20 55.6 °F 52.1 °F 29.90 in WSW 5.0 mph 11.0 mph 88 % 0.00 in 0 W/m2
04:25 55.9 °F 52.4 °F 29.90 in West 6.0 mph 14.0 mph 88 % 0.00 in 0 W/m2
04:30 55.9 °F 52.4 °F 29.90 in West 7.0 mph 14.0 mph 88 % 0.00 in 0 W/m2
04:35 56.1 °F 52.3 °F 29.90 in WNW 6.0 mph 14.0 mph 87 % 0.00 in 0 W/m2
04:40 56.1 °F 52.3 °F 29.90 in WNW 5.0 mph 8.0 mph 87 % 0.00 in 0 W/m2
04:45 55.9 °F 52.1 °F 29.90 in WNW 4.0 mph 8.0 mph 87 % 0.00 in 0 W/m2
04:50 55.9 °F 52.1 °F 29.90 in West 3.0 mph 7.0 mph 87 % 0.00 in 0 W/m2
04:55 55.8 °F 52.3 °F 29.90 in West 4.0 mph 7.0 mph 88 % 0.00 in 0 W/m2
05:00 55.8 °F 52.3 °F 29.89 in West 5.0 mph 10.0 mph 88 % 0.00 in 0 W/m2
05:05 55.8 °F 52.3 °F 29.90 in West 6.0 mph 10.0 mph 88 % 0.00 in 0 W/m2
05:10 55.9 °F 52.4 °F 29.90 in West 5.0 mph 9.0 mph 88 % 0.00 in 0 W/m2
05:15 55.8 °F 52.3 °F 29.90 in West 3.0 mph 7.0 mph 88 % 0.00 in 0 W/m2
05:25 55.4 °F 51.9 °F 29.90 in SE 1.0 mph 4.0 mph 88 % 0.00 in 0 W/m2
05:30 55.0 °F 51.5 °F 29.90 in Calm   4.0 mph 88 % 0.00 in 0 W/m2
05:35 54.7 °F 51.2 °F 29.90 in Calm   3.0 mph 88 % 0.00 in 0 W/m2
05:40 54.3 °F 51.1 °F 29.90 in Calm   1.0 mph 89 % 0.00 in 0 W/m2
05:45 54.1 °F 51.0 °F 29.91 in Calm   2.0 mph 89 % 0.00 in 0 W/m2
05:50 54.0 °F 51.1 °F 29.90 in Calm   2.0 mph 90 % 0.00 in 0 W/m2
05:55 53.8 °F 50.9 °F 29.90 in Calm   2.0 mph 90 % 0.00 in 0 W/m2
06:00 53.4 °F 50.6 °F 29.90 in Calm     90 % 0.00 in 0 W/m2
06:05 53.2 °F 50.4 °F 29.90 in Calm     90 % 0.00 in 7 W/m2
06:10 53.1 °F 50.5 °F 29.91 in Calm     91 % 0.00 in 11 W/m2
06:15 53.1 °F 50.5 °F 29.91 in Calm   1.0 mph 91 % 0.00 in 14 W/m2
06:20 52.9 °F 50.3 °F 29.91 in Calm   1.0 mph 91 % 0.00 in 19 W/m2
06:25 52.7 °F 50.4 °F 29.91 in Calm   1.0 mph 92 % 0.00 in 23 W/m2
06:30 52.7 °F 50.4 °F 29.91 in Calm     92 % 0.00 in 26 W/m2
06:36 52.5 °F 50.3 °F 29.91 in Calm     92 % 0.00 in 30 W/m2
06:41 52.5 °F 50.3 °F 29.92 in Calm   2.0 mph 92 % 0.00 in 33 W/m2
06:46 52.5 °F 50.3 °F 29.92 in Calm   2.0 mph 92 % 0.00 in 35 W/m2
06:51 52.3 °F 50.4 °F 29.92 in Calm   1.0 mph 93 % 0.00 in 39 W/m2
06:56 52.5 °F 50.6 °F 29.92 in Calm   1.0 mph 93 % 0.00 in 46 W/m2
07:01 52.5 °F 50.6 °F 29.91 in Calm   2.0 mph 93 % 0.00 in 49 W/m2
07:06 52.7 °F 50.7 °F 29.92 in Calm   2.0 mph 93 % 0.00 in 58 W/m2
07:11 53.1 °F 51.4 °F 29.92 in Calm   2.0 mph 94 % 0.00 in 95 W/m2
07:16 53.2 °F 51.6 °F 29.92 in Calm   2.0 mph 94 % 0.00 in 134 W/m2
07:21 53.8 °F 52.1 °F 29.92 in Calm   2.0 mph 94 % 0.00 in 137 W/m2
07:26 54.1 °F 52.5 °F 29.92 in Calm   2.0 mph 94 % 0.00 in 146 W/m2
07:31 54.9 °F 53.2 °F 29.92 in Calm   1.0 mph 94 % 0.00 in 160 W/m2
07:36 55.6 °F 53.6 °F 29.92 in Calm   5.0 mph 93 % 0.00 in 171 W/m2
07:41 55.9 °F 53.6 °F 29.92 in SSW 1.0 mph 5.0 mph 92 % 0.00 in 160 W/m2
07:46 56.5 °F 53.9 °F 29.92 in SW 1.0 mph 5.0 mph 91 % 0.00 in 185 W/m2
07:51 56.8 °F 53.9 °F 29.92 in SW 3.0 mph 6.0 mph 90 % 0.00 in 221 W/m2
07:56 57.4 °F 54.2 °F 29.92 in SW 5.0 mph 9.0 mph 89 % 0.00 in 243 W/m2
08:01 58.1 °F 54.6 °F 29.92 in WSW 5.0 mph 9.0 mph 88 % 0.00 in 285 W/m2
08:06 58.6 °F 54.8 °F 29.92 in SW 5.0 mph 10.0 mph 87 % 0.00 in 329 W/m2
08:08 58.8 °F 54.6 °F 29.92 in SW 5.0 mph 10.0 mph 86 % 0.00 in 327 W/m2
08:13 59.4 °F 54.8 °F 29.92 in SW 6.0 mph 11.0 mph 85 % 0.00 in 366 W/m2
08:18 60.1 °F 55.2 °F 29.92 in SW 4.0 mph 11.0 mph 84 % 0.00 in 318 W/m2
08:23 60.6 °F 55.4 °F 29.92 in WSW 3.0 mph 8.0 mph 83 % 0.00 in 316 W/m2
08:28 61.2 °F 55.6 °F 29.92 in WSW 5.0 mph 8.0 mph 82 % 0.00 in 355 W/m2
08:33 61.3 °F 55.8 °F 29.92 in WSW 5.0 mph 8.0 mph 82 % 0.00 in 355 W/m2
08:38 61.9 °F 56.3 °F 29.92 in WSW 5.0 mph 9.0 mph 82 % 0.00 in 390 W/m2
08:43 62.1 °F 56.2 °F 29.92 in WSW 7.0 mph 18.0 mph 81 % 0.00 in 373 W/m2
08:48 62.1 °F 55.8 °F 29.93 in WSW 10.0 mph 18.0 mph 80 % 0.00 in 241 W/m2
08:53 61.9 °F 55.6 °F 29.93 in West 11.0 mph 20.0 mph 80 % 0.00 in 313 W/m2
08:58 62.1 °F 55.8 °F 29.93 in West 11.0 mph 20.0 mph 80 % 0.00 in 381 W/m2
09:03 62.2 °F 56.0 °F 29.93 in West 9.0 mph 14.0 mph 80 % 0.00 in 388 W/m2
09:08 62.2 °F 55.6 °F 29.93 in West 8.0 mph 13.0 mph 79 % 0.00 in 420 W/m2
09:13 62.2 °F 56.0 °F 29.93 in WSW 8.0 mph 13.0 mph 80 % 0.00 in 422 W/m2
09:18 62.4 °F 56.2 °F 29.93 in WSW 9.0 mph 15.0 mph 80 % 0.00 in 434 W/m2
09:23 62.8 °F 55.8 °F 29.93 in West 10.0 mph 19.0 mph 78 % 0.00 in 452 W/m2
09:28 62.8 °F 55.8 °F 29.93 in West 11.0 mph 19.0 mph 78 % 0.00 in 480 W/m2
09:33 63.0 °F 56.0 °F 29.93 in West 10.0 mph 19.0 mph 78 % 0.00 in 471 W/m2
09:38 63.0 °F 55.6 °F 29.93 in WSW 10.0 mph 16.0 mph 77 % 0.00 in 482 W/m2
09:43 63.1 °F 55.8 °F 29.93 in West 10.0 mph 16.0 mph 77 % 0.00 in 487 W/m2
09:48 63.5 °F 55.8 °F 29.93 in West 10.0 mph 16.0 mph 76 % 0.00 in 506 W/m2
09:53 63.7 °F 56.0 °F 29.93 in WNW 10.0 mph 16.0 mph 76 % 0.00 in 519 W/m2
09:58 64.2 °F 56.5 °F 29.93 in West 8.0 mph 15.0 mph 76 % 0.00 in 526 W/m2
10:03 64.2 °F 56.5 °F 29.93 in West 8.0 mph 13.0 mph 76 % 0.00 in 545 W/m2
10:08 64.2 °F 56.1 °F 29.93 in West 8.0 mph 15.0 mph 75 % 0.00 in 192 W/m2
10:13 64.0 °F 56.0 °F 29.93 in West 9.0 mph 16.0 mph 75 % 0.00 in 585 W/m2
10:18 64.4 °F 56.3 °F 29.93 in West 9.0 mph 16.0 mph 75 % 0.00 in 246 W/m2
10:23 64.8 °F 56.6 °F 29.93 in West 8.0 mph 14.0 mph 75 % 0.00 in 663 W/m2
10:29 64.9 °F 56.5 °F 29.93 in West 8.0 mph 15.0 mph 74 % 0.00 in 710 W/m2
10:34 65.5 °F 57.0 °F 29.93 in West 9.0 mph 15.0 mph 74 % 0.00 in 643 W/m2
10:39 65.8 °F 56.6 °F 29.94 in West 9.0 mph 14.0 mph 72 % 0.00 in 680 W/m2
10:44 65.7 °F 56.0 °F 29.94 in West 9.0 mph 15.0 mph 71 % 0.00 in 220 W/m2
10:49 65.1 °F 55.9 °F 29.93 in West 9.0 mph 15.0 mph 72 % 0.00 in 214 W/m2
10:54 64.6 °F 56.1 °F 29.94 in West 8.0 mph 13.0 mph 74 % 0.00 in 533 W/m2
10:59 64.9 °F 56.1 °F 29.93 in West 9.0 mph 15.0 mph 73 % 0.00 in 664 W/m2
11:04 65.1 °F 55.9 °F 29.94 in West 9.0 mph 15.0 mph 72 % 0.00 in 758 W/m2
11:09 65.7 °F 56.0 °F 29.94 in West 9.0 mph 15.0 mph 71 % 0.00 in 687 W/m2
11:14 65.8 °F 55.8 °F 29.94 in West 9.0 mph 18.0 mph 70 % 0.00 in 501 W/m2
11:19 66.0 °F 56.0 °F 29.94 in West 10.0 mph 18.0 mph 70 % 0.00 in 501 W/m2
11:24 66.4 °F 56.3 °F 29.94 in West 9.0 mph 16.0 mph 70 % 0.00 in 304 W/m2
11:29 66.4 °F 56.3 °F 29.94 in WNW 8.0 mph 16.0 mph 70 % 0.00 in 72 W/m2
11:34 65.5 °F 57.0 °F 29.94 in WNW 11.0 mph 24.0 mph 74 % 0.00 in 47 W/m2
11:39 64.0 °F 56.7 °F 29.94 in WNW 10.0 mph 24.0 mph 77 % 0.00 in 54 W/m2
11:44 63.1 °F 56.5 °F 29.94 in WNW 7.0 mph 12.0 mph 79 % 0.00 in 91 W/m2
11:49 62.6 °F 57.0 °F 29.94 in WNW 5.0 mph 11.0 mph 82 % 0.00 in 171 W/m2
11:54 62.2 °F 56.3 °F 29.94 in West 4.0 mph 8.0 mph 81 % 0.00 in 125 W/m2
11:59 61.7 °F 55.8 °F 29.94 in West 5.0 mph 10.0 mph 81 % 0.00 in 132 W/m2
12:04 61.5 °F 55.6 °F 29.94 in West 6.0 mph 10.0 mph 81 % 0.00 in 174 W/m2
12:09 61.5 °F 55.3 °F 29.94 in West 6.0 mph 10.0 mph 80 % 0.00 in 218 W/m2
12:14 61.9 °F 55.6 °F 29.94 in West 7.0 mph 11.0 mph 80 % 0.00 in 264 W/m2
12:19 62.1 °F 55.8 °F 29.94 in West 6.0 mph 11.0 mph 80 % 0.00 in 288 W/m2
12:24 62.6 °F 55.6 °F 29.94 in West 7.0 mph 13.0 mph 78 % 0.00 in 339 W/m2
12:29 63.1 °F 55.4 °F 29.94 in West 7.0 mph 13.0 mph 76 % 0.00 in 385 W/m2
12:34 63.9 °F 55.8 °F 29.94 in West 6.0 mph 15.0 mph 75 % 0.00 in 571 W/m2
12:39 64.8 °F 55.5 °F 29.94 in West 8.0 mph 15.0 mph 72 % 0.00 in 842 W/m2
12:44 65.7 °F 55.6 °F 29.94 in West 8.0 mph 15.0 mph 70 % 0.00 in 809 W/m2
12:49 66.0 °F 54.7 °F 29.94 in West 8.0 mph 20.0 mph 67 % 0.00 in 318 W/m2
12:54 66.6 °F 54.4 °F 29.94 in West 9.0 mph 20.0 mph 65 % 0.00 in 309 W/m2
12:59 66.7 °F 54.2 °F 29.94 in WNW 9.0 mph 20.0 mph 64 % 0.00 in 251 W/m2
13:04 66.4 °F 53.4 °F 29.95 in West 10.0 mph 19.0 mph 63 % 0.00 in 269 W/m2
13:09 66.0 °F 53.5 °F 29.94 in West 10.0 mph 19.0 mph 64 % 0.00 in 387 W/m2
13:14 66.0 °F 53.5 °F 29.94 in WSW 10.0 mph 16.0 mph 64 % 0.00 in 615 W/m2
13:19 66.4 °F 53.8 °F 29.95 in WSW 10.0 mph 16.0 mph 64 % 0.00 in 229 W/m2
13:25 66.0 °F 53.1 °F 29.95 in West 10.0 mph 18.0 mph 63 % 0.00 in 139 W/m2
13:30 65.7 °F 53.6 °F 29.95 in West 10.0 mph 18.0 mph 65 % 0.00 in 88 W/m2
13:35 64.9 °F 53.3 °F 29.95 in West 10.0 mph 16.0 mph 66 % 0.00 in 95 W/m2
13:40 64.6 °F 53.4 °F 29.95 in West 9.0 mph 16.0 mph 67 % 0.00 in 113 W/m2
13:45 64.2 °F 53.4 °F 29.95 in West 9.0 mph 18.0 mph 68 % 0.00 in 320 W/m2
13:50 64.4 °F 53.6 °F 29.95 in West 8.0 mph 18.0 mph 68 % 0.00 in 475 W/m2
13:55 64.8 °F 53.5 °F 29.95 in West 8.0 mph 13.0 mph 67 % 0.00 in 371 W/m2
14:00 65.1 °F 54.3 °F 29.95 in West 7.0 mph 13.0 mph 68 % 0.00 in 504 W/m2
14:05 65.7 °F 54.4 °F 29.95 in West 6.0 mph 11.0 mph 67 % 0.00 in 508 W/m2
14:10 66.0 °F 53.9 °F 29.95 in West 7.0 mph 11.0 mph 65 % 0.00 in 163 W/m2
14:15 66.0 °F 53.5 °F 29.95 in West 8.0 mph 14.0 mph 64 % 0.00 in 123 W/m2
14:20 65.7 °F 53.1 °F 29.95 in West 8.0 mph 14.0 mph 64 % 0.00 in 105 W/m2
14:23 65.7 °F 53.1 °F 29.95 in West 8.0 mph 13.0 mph 64 % 0.00 in 121 W/m2
14:28 65.3 °F 53.2 °F 29.96 in West 8.0 mph 13.0 mph 65 % 0.00 in 181 W/m2
14:33 65.1 °F 52.6 °F 29.95 in West 8.0 mph 14.0 mph 64 % 0.00 in 163 W/m2
14:38 65.1 °F 53.1 °F 29.96 in WNW 8.0 mph 14.0 mph 65 % 0.00 in 123 W/m2
14:43 65.1 °F 53.5 °F 29.96 in WNW 7.0 mph 12.0 mph 66 % 0.00 in 107 W/m2
14:48 65.1 °F 53.5 °F 29.96 in WNW 6.0 mph 10.0 mph 66 % 0.00 in 153 W/m2
14:53 65.1 °F 53.5 °F 29.96 in WNW 6.0 mph 10.0 mph 66 % 0.00 in 220 W/m2
14:58 65.1 °F 53.5 °F 29.96 in WNW 6.0 mph 10.0 mph 66 % 0.00 in 213 W/m2
15:03 65.1 °F 53.9 °F 29.96 in WNW 7.0 mph 13.0 mph 67 % 0.00 in 227 W/m2
15:08 65.1 °F 53.5 °F 29.96 in West 8.0 mph 14.0 mph 66 % 0.00 in 243 W/m2
15:18 65.1 °F 52.6 °F 29.96 in West 7.0 mph 13.0 mph 64 % 0.00 in 214 W/m2
15:23 65.1 °F 53.5 °F 29.96 in West 7.0 mph 13.0 mph 66 % 0.00 in 179 W/m2
15:28 65.1 °F 53.5 °F 29.96 in West 7.0 mph 13.0 mph 66 % 0.00 in 232 W/m2
15:33 64.9 °F 53.7 °F 29.96 in West 8.0 mph 12.0 mph 67 % 0.00 in 265 W/m2
15:38 64.9 °F 53.7 °F 29.96 in West 7.0 mph 11.0 mph 67 % 0.00 in 236 W/m2
15:43 65.1 °F 53.5 °F 29.96 in West 7.0 mph 13.0 mph 66 % 0.00 in 195 W/m2
15:48 65.1 °F 53.5 °F 29.96 in West 8.0 mph 13.0 mph 66 % 0.00 in 267 W/m2
15:53 65.3 °F 54.1 °F 29.96 in West 8.0 mph 13.0 mph 67 % 0.00 in 292 W/m2
15:58 65.8 °F 53.7 °F 29.96 in West 8.0 mph 15.0 mph 65 % 0.00 in 612 W/m2
16:03 66.4 °F 53.8 °F 29.96 in West 8.0 mph 15.0 mph 64 % 0.00 in 640 W/m2
16:08 66.7 °F 53.7 °F 29.96 in West 8.0 mph 14.0 mph 63 % 0.00 in 332 W/m2
16:13 66.7 °F 53.3 °F 29.96 in West 8.0 mph 13.0 mph 62 % 0.00 in 276 W/m2
16:18 66.7 °F 53.3 °F 29.96 in West 8.0 mph 13.0 mph 62 % 0.00 in 271 W/m2
16:23 67.3 °F 54.7 °F 29.96 in West 8.0 mph 13.0 mph 64 % 0.00 in 480 W/m2
16:28 67.5 °F 54.4 °F 29.96 in West 7.0 mph 12.0 mph 63 % 0.00 in 214 W/m2
16:33 67.5 °F 53.5 °F 29.96 in West 8.0 mph 15.0 mph 61 % 0.00 in 311 W/m2
16:38 67.3 °F 53.8 °F 29.96 in West 9.0 mph 15.0 mph 62 % 0.00 in 457 W/m2
16:43 67.5 °F 54.4 °F 29.96 in West 7.0 mph 13.0 mph 63 % 0.00 in 181 W/m2
16:48 67.3 °F 53.8 °F 29.96 in West 7.0 mph 12.0 mph 62 % 0.00 in 345 W/m2
16:53 66.9 °F 53.5 °F 29.96 in WSW 8.0 mph 13.0 mph 62 % 0.00 in 169 W/m2
16:58 66.7 °F 53.7 °F 29.96 in WSW 7.0 mph 13.0 mph 63 % 0.00 in 186 W/m2
17:03 66.7 °F 53.7 °F 29.97 in WSW 6.0 mph 12.0 mph 63 % 0.00 in 295 W/m2
17:08 66.7 °F 53.7 °F 29.97 in West 6.0 mph 12.0 mph 63 % 0.00 in 146 W/m2
17:13 66.7 °F 53.7 °F 29.97 in West 6.0 mph 10.0 mph 63 % 0.00 in 216 W/m2
17:18 66.6 °F 53.6 °F 29.97 in WSW 6.0 mph 10.0 mph 63 % 0.00 in 153 W/m2
17:23 66.2 °F 53.7 °F 29.97 in WSW 7.0 mph 13.0 mph 64 % 0.00 in 141 W/m2
17:28 66.0 °F 53.5 °F 29.96 in WSW 7.0 mph 13.0 mph 64 % 0.00 in 248 W/m2
17:33 66.4 °F 53.8 °F 29.96 in WSW 7.0 mph 11.0 mph 64 % 0.00 in 306 W/m2
17:38 66.4 °F 53.8 °F 29.96 in West 6.0 mph 10.0 mph 64 % 0.00 in 135 W/m2
17:43 66.4 °F 53.8 °F 29.96 in West 6.0 mph 11.0 mph 64 % 0.00 in 113 W/m2
17:48 66.4 °F 53.8 °F 29.96 in West 6.0 mph 11.0 mph 64 % 0.00 in 113 W/m2
17:53 66.0 °F 53.9 °F 29.96 in West 6.0 mph 10.0 mph 65 % 0.00 in 90 W/m2
17:58 65.8 °F 54.2 °F 29.96 in West 5.0 mph 8.0 mph 66 % 0.00 in 91 W/m2
18:04 65.7 °F 54.0 °F 29.97 in West 5.0 mph 9.0 mph 66 % 0.00 in 91 W/m2
18:09 65.5 °F 53.8 °F 29.97 in West 6.0 mph 9.0 mph 66 % 0.00 in 98 W/m2
18:14 65.5 °F 53.8 °F 29.97 in West 6.0 mph 9.0 mph 66 % 0.00 in 102 W/m2
18:19 65.5 °F 53.8 °F 29.97 in West 5.0 mph 8.0 mph 66 % 0.00 in 93 W/m2
18:24 65.5 °F 54.2 °F 29.97 in West 4.0 mph 8.0 mph 67 % 0.00 in 76 W/m2
18:29 65.5 °F 54.2 °F 29.97 in West 3.0 mph 7.0 mph 67 % 0.00 in 104 W/m2
18:34 65.5 °F 54.2 °F 29.97 in West 4.0 mph 6.0 mph 67 % 0.00 in 197 W/m2
18:39 65.8 °F 54.2 °F 29.97 in West 4.0 mph 8.0 mph 66 % 0.00 in 172 W/m2
18:44 66.0 °F 53.9 °F 29.97 in West 4.0 mph 9.0 mph 65 % 0.00 in 158 W/m2
18:49 66.2 °F 54.1 °F 29.97 in WNW 5.0 mph 9.0 mph 65 % 0.00 in 144 W/m2
18:54 66.2 °F 54.1 °F 29.97 in WNW 5.0 mph 8.0 mph 65 % 0.00 in 123 W/m2
18:59 66.0 °F 53.9 °F 29.97 in WNW 5.0 mph 8.0 mph 65 % 0.00 in 76 W/m2
19:04 65.8 °F 53.7 °F 29.97 in WNW 5.0 mph 8.0 mph 65 % 0.00 in 69 W/m2
19:09 65.7 °F 54.0 °F 29.97 in WNW 4.0 mph 7.0 mph 66 % 0.00 in 58 W/m2
19:14 65.3 °F 54.5 °F 29.97 in WNW 4.0 mph 7.0 mph 68 % 0.00 in 51 W/m2
19:19 64.9 °F 54.1 °F 29.97 in WNW 3.0 mph 7.0 mph 68 % 0.00 in 47 W/m2
19:24 64.8 °F 53.9 °F 29.97 in WNW 3.0 mph 7.0 mph 68 % 0.00 in 44 W/m2
19:29 64.4 °F 54.0 °F 29.97 in NW 3.0 mph 7.0 mph 69 % 0.00 in 40 W/m2
19:34 64.0 °F 53.7 °F 29.97 in NW 3.0 mph 7.0 mph 69 % 0.00 in 44 W/m2
19:39 63.9 °F 53.5 °F 29.97 in NW 2.0 mph 6.0 mph 69 % 0.00 in 46 W/m2
19:44 63.9 °F 53.9 °F 29.97 in NW 1.0 mph 5.0 mph 70 % 0.00 in 33 W/m2
19:49 63.7 °F 54.1 °F 29.98 in NW 1.0 mph 4.0 mph 71 % 0.00 in 28 W/m2
19:54 63.3 °F 54.1 °F 29.98 in NW 1.0 mph 4.0 mph 72 % 0.00 in 23 W/m2
19:59 63.1 °F 54.0 °F 29.98 in Calm   3.0 mph 72 % 0.00 in 19 W/m2
20:04 62.8 °F 53.6 °F 29.98 in Calm   1.0 mph 72 % 0.00 in 12 W/m2
20:09 62.4 °F 53.6 °F 29.98 in Calm     73 % 0.00 in 7 W/m2
20:14 62.2 °F 53.5 °F 29.98 in Calm     73 % 0.00 in 7 W/m2
20:19 61.9 °F 53.9 °F 29.99 in Calm     75 % 0.00 in 7 W/m2
20:24 61.7 °F 54.1 °F 29.99 in Calm     76 % 0.00 in 9 W/m2
20:29 61.3 °F 53.7 °F 29.99 in Calm     76 % 0.00 in 7 W/m2
20:34 61.2 °F 53.9 °F 29.99 in Calm     77 % 0.00 in 0 W/m2
20:39 60.8 °F 53.9 °F 29.99 in Calm     78 % 0.00 in 0 W/m2
20:44 60.4 °F 53.9 °F 29.99 in Calm     79 % 0.00 in 0 W/m2
20:49 60.1 °F 53.9 °F 29.99 in Calm     80 % 0.00 in 0 W/m2
20:54 59.7 °F 53.9 °F 29.99 in Calm     81 % 0.00 in 0 W/m2
20:59 59.5 °F 54.0 °F 29.99 in Calm     82 % 0.00 in 0 W/m2
21:04 59.2 °F 53.7 °F 29.99 in Calm     82 % 0.00 in 0 W/m2
21:09 58.8 °F 53.7 °F 29.99 in Calm     83 % 0.00 in 0 W/m2
21:14 58.6 °F 53.5 °F 29.99 in Calm   1.0 mph 83 % 0.00 in 0 W/m2
21:19 58.3 °F 53.5 °F 29.99 in Calm   1.0 mph 84 % 0.00 in 0 W/m2
21:24 57.9 °F 53.1 °F 29.99 in Calm     84 % 0.00 in 0 W/m2
21:29 57.7 °F 52.9 °F 30.00 in Calm   1.0 mph 84 % 0.00 in 0 W/m2
21:34 57.6 °F 53.1 °F 30.00 in Calm   1.0 mph 85 % 0.00 in 0 W/m2
21:39 57.6 °F 53.4 °F 30.00 in Calm   1.0 mph 86 % 0.00 in 0 W/m2
21:44 57.4 °F 53.2 °F 30.00 in Calm   2.0 mph 86 % 0.00 in 0 W/m2
21:50 57.4 °F 53.2 °F 30.00 in Calm   2.0 mph 86 % 0.00 in 0 W/m2
21:55 57.2 °F 53.4 °F 30.00 in NW 1.0 mph 4.0 mph 87 % 0.00 in 0 W/m2
22:00 57.0 °F 53.2 °F 30.00 in NW 1.0 mph 5.0 mph 87 % 0.00 in 0 W/m2
22:05 57.0 °F 53.2 °F 29.99 in NW 1.0 mph 5.0 mph 87 % 0.00 in 0 W/m2
22:10 56.8 °F 53.0 °F 29.99 in Calm   2.0 mph 87 % 0.00 in 0 W/m2
22:15 56.8 °F 53.0 °F 29.99 in Calm     87 % 0.00 in 0 W/m2
22:19 56.7 °F 52.8 °F 29.99 in Calm     87 % 0.00 in 0 W/m2
22:25 56.5 °F 52.7 °F 29.99 in Calm   1.0 mph 87 % 0.00 in 0 W/m2
22:30 56.1 °F 52.3 °F 29.99 in Calm   2.0 mph 87 % 0.00 in 0 W/m2
22:35 56.1 °F 52.3 °F 29.99 in NW 1.0 mph 5.0 mph 87 % 0.00 in 0 W/m2
22:40 55.9 °F 52.4 °F 30.00 in NW 2.0 mph 5.0 mph 88 % 0.00 in 0 W/m2
22:45 55.9 °F 52.4 °F 30.00 in NW 1.0 mph 5.0 mph 88 % 0.00 in 0 W/m2
22:50 55.9 °F 52.1 °F 30.00 in NW 1.0 mph 5.0 mph 87 % 0.00 in 0 W/m2
22:55 55.9 °F 52.1 °F 30.00 in Calm   4.0 mph 87 % 0.00 in 0 W/m2
23:00 55.8 °F 51.9 °F 30.00 in NW 1.0 mph 4.0 mph 87 % 0.00 in 0 W/m2
23:05 55.6 °F 52.1 °F 30.00 in NW 2.0 mph 5.0 mph 88 % 0.00 in 0 W/m2
23:10 55.6 °F 52.1 °F 30.00 in WNW 3.0 mph 6.0 mph 88 % 0.00 in 0 W/m2
23:15 55.4 °F 51.9 °F 30.00 in WNW 2.0 mph 6.0 mph 88 % 0.00 in 0 W/m2
23:20 55.2 °F 51.7 °F 30.00 in WNW 3.0 mph 7.0 mph 88 % 0.00 in 0 W/m2
23:25 55.2 °F 51.7 °F 30.00 in WNW 5.0 mph 8.0 mph 88 % 0.00 in 0 W/m2
23:30 55.4 °F 51.6 °F 30.00 in WNW 6.0 mph 9.0 mph 87 % 0.00 in 0 W/m2
23:35 55.6 °F 51.8 °F 30.00 in WNW 5.0 mph 9.0 mph 87 % 0.00 in 0 W/m2
23:37 55.8 °F 51.9 °F 30.00 in WNW 5.0 mph 9.0 mph 87 % 0.00 in 0 W/m2
23:42 55.8 °F 51.6 °F 30.00 in WNW 3.0 mph 7.0 mph 86 % 0.00 in 0 W/m2
23:47 55.9 °F 51.8 °F 30.00 in WNW 3.0 mph 7.0 mph 86 % 0.00 in 0 W/m2
23:52 55.9 °F 51.5 °F 30.00 in WNW 4.0 mph 7.0 mph 85 % 0.00 in 0 W/m2
23:57 55.9 °F 51.5 °F 30.00 in WNW 4.0 mph 7.0 mph 85 % 0.00 in 0 W/m2
Delerius-Weather
Compliments of Weather Underground - 2.25 mb

Data updates at regular intervals.